Castro Verd, Portugal
Current Conditions -  °F | °C
As of 8:00 PM on Friday 28 Nov 2014 (Local Time) from LPBJ Reporting Station
Few Clouds Few Clouds  
Wind Chill: 50°   Ceiling: Unl
Heat Index: 50°   Visibility: 6mi
Dew Point: 46°   Wind: 7mph
Humidity: 87%   Direction: 110°ESE
Pressure: 29.15"   Gusts: NA
Location:  37.7°N, 8.08°W
Report Text: LPBJ 282000Z 11006KT 9999 FEW020 FEW025CB 10/08 Q0987
Loading
Personal Weather Stations






























Interactive Weather Map New forecast layout! Learn more

10-Day Weather Forecast

Advertisements
Track Severe Weather on mobile